McFarland, CA (93250)

6:54 PM PST on February 20, 2017 (GMT -0800)
McFarland | | Change Station
Active Advisory: Small Craft Advisory Active Notice: Public Information Statement

Elev 342 ft 35.69 °N, 119.23 °W | Updated 1 minute ago

Partly Cloudy
Partly Cloudy
60.6 °F
Feels Like 60.6 °F
N
7.8
Wind Variable Wind from East

Today
High -- | Low -- °F
--% Chance of Precip.
Yesterday
High -- | Low -- °F
Precip. -- in
Pressure 30.13 in
Visibility 10.0 miles
Clouds Mostly Cloudy 8500 ft
Overcast 10000 ft
Dew Point 54 °F
Humidity 79%
Rainfall 0.05 in
Snow Depth Not available.
6:37 AM 5:44 PM
Waning Crescent, 29% visible
METAR KBFL 210154Z 03009KT 10SM BKN085 OVC100 18/12 A3014 RMK AO2 SLP202 T01830117
Pressure 30.13 in
Visibility 10.0 miles
Clouds Mostly Cloudy 8500 ft
Overcast 10000 ft
Dew Point 54 °F
Humidity 79%
Rainfall 0.05 in
Snow Depth Not available.
6:37 AM 5:44 PM
Waning Crescent, 29% visible
METAR KBFL 210154Z 03009KT 10SM BKN085 OVC100 18/12 A3014 RMK AO2 SLP202 T01830117

Get Your Daily Forecast Email!

Thanks for signing up!

Be on the lookout for a verification email in your inbox.

You'll start receiving the daily forecast at 8 AM.

×

10-Day Weather Forecast

Almanac

Astronomy

Feb. 20, 2017 Rise Set
Actual Time
Civil Twilight
Nautical Twilight
Astronomical Twilight
Moon
Length of Visible Light
Length of Day
Tomorrow will be .
, % of the Moon is Illuminated

Today's Extremes

State Highs State Lows

Community

WunderPhotos

Upload Photos

1,962,540 photos uploaded!

WunderBlog® & News

Nearby

Air Quality

  Air Quality AQ Index Pollutant
Not available.

Snow Depth

Station Depth Elevation

Earthquake Activity

City Distance Mag. Time & Date
Minimum magnitude displayed is 2.5.

Coastal Water Temperatures

Place Temperature

Stations

Nearby Weather Stations

Station Location Temp. Windchill Dew Point Humidity Wind Precip. Elev Updated Type
                   

Watches & Warnings

Small Craft Advisory
Issued: 4:50 PM PST Feb. 20, 2017 – National Weather Service

... Small Craft Advisory remains in effect until 9 PM PST this
evening...

See the coastal waters forecast (cwflox) for more details.

Precautionary/preparedness actions...

A Small Craft Advisory means that hazardous sea conditions will
exist for small craft. Inexperienced mariners... especially those
operating smaller vessels should avoid navigating in these
conditions.



Hall